Time;durP1;ratioP1;P1;durP2;ratioP2;P2;SDS_P1;SDS_P2;PMS_P1;PMS_P2;Temp;Humidity;BMP_temperature;BMP_pressure;BME280_temperature;BME280_humidity;BME280_pressure;Samples;Min_cycle;Max_cycle;Signal;HPM_P1;HPM_P2
2022/07/21 00:01:22;;;;;;;;;;;20.70;99.90;;;;;;5086292;28;19984;-68
2022/07/21 00:03:50;;;;;;;;;;;20.70;99.90;;;;;;5085948;28;19952;-67
2022/07/21 00:06:18;;;;;;;;;;;20.80;99.90;;;;;;5085141;28;19947;-67
2022/07/21 00:08:45;;;;;;;;;;;20.80;99.90;;;;;;5086124;28;19920;-67
2022/07/21 00:11:11;;;;;;;;;;;20.80;99.90;;;;;;5086067;28;19956;-68
2022/07/21 00:13:38;;;;;;;;;;;20.90;99.90;;;;;;5085689;28;19921;-68
2022/07/21 00:16:11;;;;;;;;;;;20.90;99.90;;;;;;5085029;28;19987;-68
2022/07/21 00:18:37;;;;;;;;;;;20.90;99.90;;;;;;5085787;28;19992;-68
2022/07/21 00:21:06;;;;;;;;;;;20.90;99.90;;;;;;5085871;28;20191;-68
2022/07/21 00:23:32;;;;;;;;;;;20.90;99.90;;;;;;5085661;28;19983;-68
2022/07/21 00:25:59;;;;;;;;;;;20.80;99.90;;;;;;5085642;28;20252;-68
2022/07/21 00:28:26;;;;;;;;;;;20.90;99.90;;;;;;5085789;28;20179;-68
2022/07/21 00:30:52;;;;;;;;;;;20.80;99.90;;;;;;5085369;28;19921;-68
2022/07/21 00:33:19;;;;;;;;;;;20.80;99.90;;;;;;5085192;28;19991;-68
2022/07/21 00:35:46;;;;;;;;;;;20.80;99.90;;;;;;5085269;28;19920;-68
2022/07/21 00:38:14;;;;;;;;;;;20.80;99.90;;;;;;5085661;28;19920;-68
2022/07/21 00:40:40;;;;;;;;;;;20.80;99.90;;;;;;5085480;28;20142;-68
2022/07/21 00:43:07;;;;;;;;;;;20.90;99.90;;;;;;5084933;28;19996;-67
2022/07/21 00:45:34;;;;;;;;;;;20.70;99.90;;;;;;5084980;28;19926;-68
2022/07/21 00:48:00;;;;;;;;;;;20.70;99.90;;;;;;5085118;28;19924;-67
2022/07/21 00:50:27;;;;;;;;;;;20.80;99.90;;;;;;5064933;28;19927;-67
2022/07/21 00:52:54;;;;;;;;;;;20.80;99.90;;;;;;5064625;28;20232;-68
2022/07/21 00:55:24;;;;;;;;;;;20.80;99.90;;;;;;5065273;28;19920;-67
2022/07/21 00:57:51;;;;;;;;;;;20.80;99.90;;;;;;5064857;28;19921;-68
2022/07/21 01:00:18;;;;;;;;;;;20.80;99.90;;;;;;5064794;28;19959;-68
2022/07/21 01:02:45;;;;;;;;;;;20.80;99.90;;;;;;5064820;28;19963;-68
2022/07/21 01:05:14;;;;;;;;;;;20.70;99.90;;;;;;5064555;28;20162;-67
2022/07/21 01:07:41;;;;;;;;;;;20.70;99.90;;;;;;5064880;28;19929;-68
2022/07/21 01:10:09;;;;;;;;;;;20.70;99.90;;;;;;5064830;28;19952;-68
2022/07/21 01:12:37;;;;;;;;;;;20.60;99.90;;;;;;5064385;28;19952;-68
2022/07/21 01:15:04;;;;;;;;;;;20.60;99.90;;;;;;5064639;28;19952;-68
2022/07/21 01:17:31;;;;;;;;;;;20.60;99.90;;;;;;5064433;28;20466;-68
2022/07/21 01:19:58;;;;;;;;;;;20.60;99.90;;;;;;5064685;28;19921;-68
2022/07/21 01:22:26;;;;;;;;;;;20.60;99.90;;;;;;5064055;28;19976;-67
2022/07/21 01:24:52;;;;;;;;;;;20.70;99.90;;;;;;5064357;28;19963;-68
2022/07/21 01:27:19;;;;;;;;;;;20.60;99.90;;;;;;5064711;28;19927;-68
2022/07/21 01:29:46;;;;;;;;;;;20.60;99.90;;;;;;5064400;28;19927;-68
2022/07/21 01:32:12;;;;;;;;;;;20.60;99.90;;;;;;5064443;28;19988;-68
2022/07/21 01:34:39;;;;;;;;;;;20.60;99.90;;;;;;5063983;28;19952;-68
2022/07/21 01:37:06;;;;;;;;;;;20.60;99.90;;;;;;5064111;28;19983;-67
2022/07/21 01:42:18;;;;;;;;;;;20.60;99.90;;;;;;5064186;28;20169;-67
2022/07/21 01:44:44;;;;;;;;;;;20.60;99.90;;;;;;5064020;28;20025;-68
2022/07/21 01:47:11;;;;;;;;;;;20.60;99.90;;;;;;5064207;28;19927;-68
2022/07/21 01:49:38;;;;;;;;;;;20.60;99.90;;;;;;5064248;28;19980;-68
2022/07/21 01:52:04;;;;;;;;;;;20.50;99.90;;;;;;5064094;28;19920;-68
2022/07/21 01:54:32;;;;;;;;;;;20.50;99.90;;;;;;5063461;28;19963;-68
2022/07/21 01:57:00;;;;;;;;;;;20.50;99.90;;;;;;5063350;28;19932;-68
2022/07/21 01:59:27;;;;;;;;;;;20.40;99.90;;;;;;5063748;28;20258;-67
2022/07/21 02:01:54;;;;;;;;;;;20.30;99.90;;;;;;5063793;28;20254;-68
2022/07/21 02:04:20;;;;;;;;;;;20.20;99.90;;;;;;5063545;28;20010;-68
2022/07/21 02:06:47;;;;;;;;;;;20.20;99.90;;;;;;5063650;28;19927;-67
2022/07/21 02:09:14;;;;;;;;;;;20.10;99.90;;;;;;5063697;28;20278;-67
2022/07/21 02:11:41;;;;;;;;;;;20.10;99.90;;;;;;5063536;28;19920;-67
2022/07/21 02:14:09;;;;;;;;;;;20.10;99.90;;;;;;5087395;23;19963;-68
2022/07/21 02:16:35;;;;;;;;;;;20.10;99.90;;;;;;5042771;28;19921;-68
2022/07/21 02:19:03;;;;;;;;;;;20.10;99.90;;;;;;5043321;28;19921;-68
2022/07/21 02:21:29;;;;;;;;;;;20.00;99.90;;;;;;5043422;28;19921;-68
2022/07/21 02:23:56;;;;;;;;;;;20.00;99.90;;;;;;5042931;28;20019;-68
2022/07/21 02:26:23;;;;;;;;;;;20.00;99.90;;;;;;5042930;28;20235;-68
2022/07/21 02:28:49;;;;;;;;;;;19.90;99.90;;;;;;5043442;28;20167;-68
2022/07/21 02:31:17;;;;;;;;;;;19.90;99.90;;;;;;5043225;28;19925;-68
2022/07/21 02:33:44;;;;;;;;;;;19.90;99.90;;;;;;5042072;28;19944;-68
2022/07/21 02:36:11;;;;;;;;;;;19.90;99.90;;;;;;5042752;28;20259;-68
2022/07/21 02:38:37;;;;;;;;;;;19.90;99.90;;;;;;5042238;28;19928;-68
2022/07/21 02:41:04;;;;;;;;;;;19.90;99.90;;;;;;5042755;28;20000;-68
2022/07/21 02:43:31;;;;;;;;;;;19.90;99.90;;;;;;5042903;28;19984;-68
2022/07/21 02:45:58;;;;;;;;;;;19.80;99.90;;;;;;5043129;28;19921;-68
2022/07/21 02:48:26;;;;;;;;;;;19.80;99.90;;;;;;5042858;28;19922;-68
2022/07/21 02:50:52;;;;;;;;;;;19.80;99.90;;;;;;5043390;28;19948;-68
2022/07/21 02:53:20;;;;;;;;;;;19.80;99.90;;;;;;5043075;28;19929;-68
2022/07/21 02:55:47;;;;;;;;;;;19.70;99.90;;;;;;5043096;28;19992;-68
2022/07/21 02:58:15;;;;;;;;;;;19.70;99.90;;;;;;5043027;28;19921;-68
2022/07/21 03:00:43;;;;;;;;;;;19.70;99.90;;;;;;5042905;28;19967;-68
2022/07/21 03:03:10;;;;;;;;;;;19.60;99.90;;;;;;5042623;28;20223;-68
2022/07/21 03:05:38;;;;;;;;;;;19.60;99.90;;;;;;5042888;28;20282;-68
2022/07/21 03:08:06;;;;;;;;;;;19.60;99.90;;;;;;5043178;28;19956;-68
2022/07/21 03:10:32;;;;;;;;;;;19.60;99.90;;;;;;5046633;28;19959;-68
2022/07/21 03:12:59;;;;;;;;;;;19.60;99.90;;;;;;5046219;28;19980;-68
2022/07/21 03:15:26;;;;;;;;;;;19.60;99.90;;;;;;5046683;28;20107;-67
2022/07/21 03:17:53;;;;;;;;;;;19.60;99.90;;;;;;5046668;28;20175;-68
2022/07/21 03:20:20;;;;;;;;;;;19.50;99.90;;;;;;5046487;28;19960;-68
2022/07/21 03:22:48;;;;;;;;;;;19.50;99.90;;;;;;5046474;28;19928;-68
2022/07/21 03:25:14;;;;;;;;;;;19.50;99.90;;;;;;5046124;28;19960;-68
2022/07/21 03:27:41;;;;;;;;;;;19.50;99.90;;;;;;5046606;28;19929;-68
2022/07/21 03:30:08;;;;;;;;;;;19.50;99.90;;;;;;5046693;28;19993;-68
2022/07/21 03:32:36;;;;;;;;;;;19.50;99.90;;;;;;5046147;28;20287;-68
2022/07/21 03:35:03;;;;;;;;;;;19.50;99.90;;;;;;5046380;28;20250;-68
2022/07/21 03:37:29;;;;;;;;;;;19.50;99.90;;;;;;5046074;28;20251;-68
2022/07/21 03:39:57;;;;;;;;;;;19.50;99.90;;;;;;5046273;28;20167;-68
2022/07/21 03:42:24;;;;;;;;;;;19.50;99.90;;;;;;5046100;28;19995;-68
2022/07/21 03:44:51;;;;;;;;;;;19.60;99.90;;;;;;5045868;28;20291;-68
2022/07/21 03:47:18;;;;;;;;;;;19.60;99.90;;;;;;5045997;28;19988;-67
2022/07/21 03:49:44;;;;;;;;;;;19.60;99.90;;;;;;5045766;28;19984;-68
2022/07/21 03:52:11;;;;;;;;;;;19.60;99.90;;;;;;5046092;28;20209;-68
2022/07/21 03:54:38;;;;;;;;;;;19.60;99.90;;;;;;5045671;28;19927;-68
2022/07/21 03:57:06;;;;;;;;;;;19.60;99.90;;;;;;5045980;28;19928;-68
2022/07/21 03:59:32;;;;;;;;;;;19.70;99.90;;;;;;5045612;28;19955;-68
2022/07/21 04:01:59;;;;;;;;;;;19.60;99.90;;;;;;5045688;28;20275;-68
2022/07/21 04:04:25;;;;;;;;;;;19.60;99.90;;;;;;5045381;28;19921;-68
2022/07/21 04:06:52;;;;;;;;;;;19.70;99.90;;;;;;5045686;28;19996;-68
2022/07/21 04:09:19;;;;;;;;;;;19.70;99.90;;;;;;5045527;28;19928;-68
2022/07/21 04:11:45;;;;;;;;;;;19.70;99.90;;;;;;5045664;28;19949;-68
2022/07/21 04:14:13;;;;;;;;;;;19.70;99.90;;;;;;5045077;28;19968;-68
2022/07/21 04:16:40;;;;;;;;;;;19.80;99.90;;;;;;5045828;28;19992;-68
2022/07/21 04:19:07;;;;;;;;;;;19.70;99.90;;;;;;5045520;28;19921;-68
2022/07/21 04:21:33;;;;;;;;;;;19.80;99.90;;;;;;5045036;28;19967;-68
2022/07/21 04:24:00;;;;;;;;;;;19.80;99.90;;;;;;5045057;28;20299;-68
2022/07/21 04:26:27;;;;;;;;;;;19.70;99.90;;;;;;5045309;28;19984;-68
2022/07/21 04:28:54;;;;;;;;;;;19.70;99.90;;;;;;5045116;28;20205;-68
2022/07/21 04:31:22;;;;;;;;;;;19.60;99.90;;;;;;5045308;28;19963;-68
2022/07/21 04:33:49;;;;;;;;;;;19.60;99.90;;;;;;5044568;28;20279;-68
2022/07/21 04:36:15;;;;;;;;;;;19.60;99.90;;;;;;5045036;28;19921;-68
2022/07/21 04:38:42;;;;;;;;;;;19.60;99.90;;;;;;5045057;28;19992;-68
2022/07/21 04:41:09;;;;;;;;;;;19.60;99.90;;;;;;5045090;28;19956;-68
2022/07/21 04:43:35;;;;;;;;;;;19.60;99.90;;;;;;5044395;28;19947;-68
2022/07/21 04:46:02;;;;;;;;;;;19.60;99.90;;;;;;5045090;28;19929;-68
2022/07/21 04:48:30;;;;;;;;;;;19.60;99.90;;;;;;5044873;28;19925;-68
2022/07/21 04:50:57;;;;;;;;;;;19.60;99.90;;;;;;5045029;28;19984;-68
2022/07/21 04:53:23;;;;;;;;;;;19.60;99.90;;;;;;5044535;28;20229;-66
2022/07/21 04:55:50;;;;;;;;;;;19.60;99.90;;;;;;5044732;28;19949;-68
2022/07/21 04:58:17;;;;;;;;;;;19.50;99.90;;;;;;5044978;28;19921;-68
2022/07/21 05:00:44;;;;;;;;;;;19.50;99.90;;;;;;5044543;28;19929;-68
2022/07/21 05:03:13;;;;;;;;;;;19.50;99.90;;;;;;5044329;28;20264;-68
2022/07/21 05:05:41;;;;;;;;;;;19.60;99.90;;;;;;5044558;28;20124;-68
2022/07/21 05:08:07;;;;;;;;;;;19.60;99.90;;;;;;5044325;28;20118;-68
2022/07/21 05:10:34;;;;;;;;;;;19.60;99.90;;;;;;5044474;28;19921;-68
2022/07/21 05:13:01;;;;;;;;;;;19.60;99.90;;;;;;5044216;28;19921;-66
2022/07/21 05:15:27;;;;;;;;;;;19.60;99.90;;;;;;5044235;28;19957;-67
2022/07/21 05:17:54;;;;;;;;;;;19.60;99.90;;;;;;5044298;28;19960;-67
2022/07/21 05:20:21;;;;;;;;;;;19.70;99.90;;;;;;5043983;28;19952;-67
2022/07/21 05:22:49;;;;;;;;;;;19.60;99.90;;;;;;5043777;28;19961;-66
2022/07/21 05:25:15;;;;;;;;;;;19.60;99.90;;;;;;5043982;28;19988;-68
2022/07/21 05:27:42;;;;;;;;;;;19.60;99.90;;;;;;5044120;28;20193;-68
2022/07/21 05:30:09;;;;;;;;;;;19.50;99.90;;;;;;5044272;28;20180;-68
2022/07/21 05:32:36;;;;;;;;;;;19.50;99.90;;;;;;5042656;28;19983;-68
2022/07/21 05:35:08;;;;;;;;;;;19.60;99.90;;;;;;5043875;28;20113;-68
2022/07/21 05:37:34;;;;;;;;;;;19.70;99.90;;;;;;5043788;28;19945;-68
2022/07/21 05:40:02;;;;;;;;;;;19.60;99.90;;;;;;5043912;28;20171;-67
2022/07/21 05:42:29;;;;;;;;;;;19.60;99.90;;;;;;5043607;28;19960;-67
2022/07/21 05:44:56;;;;;;;;;;;19.60;99.90;;;;;;5043434;28;19921;-68
2022/07/21 05:47:23;;;;;;;;;;;19.50;99.90;;;;;;5043893;28;19928;-67
2022/07/21 05:49:49;;;;;;;;;;;19.60;99.90;;;;;;5044298;28;20200;-67
2022/07/21 05:52:16;;;;;;;;;;;19.50;99.90;;;;;;5043792;28;20101;-68
2022/07/21 05:54:43;;;;;;;;;;;19.50;99.90;;;;;;5043468;28;20214;-68
2022/07/21 05:57:11;;;;;;;;;;;19.60;99.90;;;;;;5044150;28;19987;-67
2022/07/21 05:59:37;;;;;;;;;;;19.60;99.90;;;;;;5043859;28;19944;-65
2022/07/21 06:02:04;;;;;;;;;;;19.70;99.90;;;;;;5043513;28;19984;-66
2022/07/21 06:04:31;;;;;;;;;;;19.70;99.90;;;;;;5043543;28;19979;-66
2022/07/21 06:06:57;;;;;;;;;;;19.70;99.90;;;;;;5043718;28;19948;-67
2022/07/21 06:09:24;;;;;;;;;;;19.80;99.90;;;;;;5044006;28;20123;-69
2022/07/21 06:11:51;;;;;;;;;;;19.80;99.90;;;;;;5044040;28;19952;-68
2022/07/21 06:14:19;;;;;;;;;;;19.80;99.90;;;;;;5043484;28;19921;-68
2022/07/21 06:16:45;;;;;;;;;;;19.70;99.90;;;;;;5039762;28;20296;-69
2022/07/21 06:19:12;;;;;;;;;;;19.80;99.90;;;;;;5042085;28;20176;-69
2022/07/21 06:21:40;;;;;;;;;;;19.80;99.90;;;;;;5040157;28;19953;-69
2022/07/21 06:24:07;;;;;;;;;;;19.80;99.90;;;;;;5039370;28;20108;-68
2022/07/21 06:26:33;;;;;;;;;;;19.80;99.90;;;;;;5039748;28;20268;-68
2022/07/21 06:29:00;;;;;;;;;;;19.90;99.90;;;;;;5039064;28;19979;-68
2022/07/21 06:31:28;;;;;;;;;;;19.90;99.90;;;;;;5039459;28;19955;-68
2022/07/21 06:33:55;;;;;;;;;;;19.90;99.90;;;;;;5031488;28;20271;-69
2022/07/21 06:36:21;;;;;;;;;;;19.90;99.90;;;;;;5032351;28;20247;-68
2022/07/21 06:38:48;;;;;;;;;;;19.90;99.90;;;;;;5036867;28;20117;-68
2022/07/21 06:41:15;;;;;;;;;;;19.90;99.90;;;;;;5031964;28;20153;-69
2022/07/21 06:43:41;;;;;;;;;;;19.90;99.90;;;;;;5035233;28;19921;-68
2022/07/21 06:46:08;;;;;;;;;;;20.00;99.90;;;;;;5038737;28;20221;-68
2022/07/21 06:48:36;;;;;;;;;;;20.00;99.90;;;;;;5036961;28;19943;-69
2022/07/21 06:51:03;;;;;;;;;;;20.00;99.90;;;;;;5039170;28;19988;-68
2022/07/21 06:53:29;;;;;;;;;;;20.00;99.90;;;;;;5038923;28;19921;-68
2022/07/21 06:55:56;;;;;;;;;;;20.00;99.90;;;;;;5038280;28;19992;-68
2022/07/21 06:58:24;;;;;;;;;;;20.00;99.90;;;;;;5035464;28;19989;-68
2022/07/21 07:00:51;;;;;;;;;;;19.90;99.90;;;;;;5040691;28;19921;-68
2022/07/21 07:03:18;;;;;;;;;;;20.00;99.90;;;;;;5046581;28;19971;-68
2022/07/21 07:05:47;;;;;;;;;;;20.00;99.90;;;;;;5046995;28;19921;-68
2022/07/21 07:08:14;;;;;;;;;;;20.00;99.90;;;;;;5047176;28;19956;-68
2022/07/21 07:10:40;;;;;;;;;;;20.00;99.90;;;;;;5046641;28;19925;-69
2022/07/21 07:13:07;;;;;;;;;;;20.10;99.90;;;;;;5046671;28;20205;-68
2022/07/21 07:15:34;;;;;;;;;;;20.20;99.90;;;;;;5046494;28;19921;-68
2022/07/21 07:18:01;;;;;;;;;;;20.20;99.90;;;;;;5046996;28;19983;-68
2022/07/21 07:20:27;;;;;;;;;;;20.20;99.90;;;;;;5044678;28;19935;-69
2022/07/21 07:22:55;;;;;;;;;;;20.30;99.90;;;;;;5038077;28;19921;-68
2022/07/21 07:25:22;;;;;;;;;;;20.40;99.90;;;;;;5045917;28;20181;-68
2022/07/21 07:27:51;;;;;;;;;;;20.40;99.90;;;;;;5046292;28;19921;-68
2022/07/21 07:30:18;;;;;;;;;;;20.50;99.90;;;;;;5046760;28;19921;-68
2022/07/21 07:32:46;;;;;;;;;;;20.60;99.90;;;;;;5046358;28;20169;-67
2022/07/21 07:35:13;;;;;;;;;;;20.60;99.90;;;;;;5046221;28;20113;-68
2022/07/21 07:37:40;;;;;;;;;;;20.70;99.90;;;;;;5046500;28;19921;-67
2022/07/21 07:40:10;;;;;;;;;;;20.80;99.90;;;;;;5046305;28;20275;-68
2022/07/21 07:42:37;;;;;;;;;;;20.90;99.90;;;;;;5043723;28;19960;-68
2022/07/21 07:45:05;;;;;;;;;;;21.00;99.90;;;;;;5046251;28;19993;-68
2022/07/21 07:47:32;;;;;;;;;;;21.10;99.90;;;;;;5046281;28;19941;-68
2022/07/21 07:49:59;;;;;;;;;;;21.20;99.90;;;;;;5046084;28;19953;-68
2022/07/21 07:52:25;;;;;;;;;;;21.40;99.90;;;;;;5046210;28;19929;-68
2022/07/21 07:54:52;;;;;;;;;;;21.50;99.90;;;;;;5045134;28;19988;-68
2022/07/21 07:57:20;;;;;;;;;;;21.60;99.90;;;;;;5046175;28;19927;-68
2022/07/21 07:59:47;;;;;;;;;;;21.60;99.90;;;;;;5045884;28;19952;-67
2022/07/21 08:02:13;;;;;;;;;;;21.70;99.90;;;;;;5046348;28;19956;-68
2022/07/21 08:04:40;;;;;;;;;;;21.80;99.90;;;;;;5045944;28;19984;-68
2022/07/21 08:07:07;;;;;;;;;;;21.80;99.90;;;;;;5045814;28;19921;-68
2022/07/21 08:09:34;;;;;;;;;;;21.80;99.90;;;;;;5044137;28;19953;-69
2022/07/21 08:12:01;;;;;;;;;;;21.80;99.90;;;;;;5042699;28;20262;-68
2022/07/21 08:14:29;;;;;;;;;;;21.80;99.90;;;;;;5044667;28;20228;-68
2022/07/21 08:16:58;;;;;;;;;;;21.70;99.90;;;;;;5045207;28;19988;-68
2022/07/21 08:19:25;;;;;;;;;;;21.70;99.90;;;;;;5045585;28;19925;-68
2022/07/21 08:21:51;;;;;;;;;;;21.70;99.90;;;;;;5031565;28;19948;-68
2022/07/21 08:24:18;;;;;;;;;;;21.80;99.90;;;;;;5043123;28;20171;-68
2022/07/21 08:26:46;;;;;;;;;;;21.80;99.90;;;;;;5045122;28;20243;-68
2022/07/21 08:29:13;;;;;;;;;;;21.80;99.90;;;;;;5050147;28;19928;-69
2022/07/21 08:31:41;;;;;;;;;;;21.80;99.90;;;;;;5043007;28;19956;-68
2022/07/21 08:34:07;;;;;;;;;;;22.00;99.90;;;;;;5045054;28;19921;-68
2022/07/21 08:36:34;;;;;;;;;;;22.00;99.90;;;;;;5045325;28;19952;-68
2022/07/21 08:39:01;;;;;;;;;;;22.00;99.90;;;;;;5045549;28;19921;-68
2022/07/21 08:41:29;;;;;;;;;;;22.00;99.90;;;;;;5044974;28;19921;-68
2022/07/21 08:43:56;;;;;;;;;;;22.10;99.90;;;;;;5045048;28;20090;-68
2022/07/21 08:46:23;;;;;;;;;;;22.10;99.90;;;;;;5045408;28;19968;-68
2022/07/21 08:48:52;;;;;;;;;;;22.20;99.90;;;;;;5046258;28;19922;-68
2022/07/21 08:51:18;;;;;;;;;;;22.30;99.90;;;;;;5065345;28;19927;-68
2022/07/21 08:53:45;;;;;;;;;;;22.30;99.90;;;;;;5065096;28;19931;-68
2022/07/21 08:56:12;;;;;;;;;;;22.40;99.90;;;;;;5064892;28;19948;-68
2022/07/21 08:58:38;;;;;;;;;;;22.40;99.90;;;;;;5064669;28;19951;-68
2022/07/21 09:01:05;;;;;;;;;;;22.50;99.90;;;;;;5048180;28;19960;-68
2022/07/21 09:03:32;;;;;;;;;;;22.50;99.90;;;;;;5043955;28;19960;-68
2022/07/21 09:06:01;;;;;;;;;;;22.80;99.90;;;;;;5043413;28;20116;-68
2022/07/21 09:08:31;;;;;;;;;;;22.80;99.90;;;;;;5042469;28;19936;-68
2022/07/21 09:11:08;;;;;;;;;;;22.90;99.90;;;;;;5024968;28;20125;-68
2022/07/21 09:13:35;;;;;;;;;;;23.00;99.90;;;;;;5038204;28;19921;-68
2022/07/21 09:16:01;;;;;;;;;;;22.90;99.90;;;;;;5041066;28;20003;-68
2022/07/21 09:18:28;;;;;;;;;;;23.00;99.90;;;;;;5043279;28;19936;-68
2022/07/21 09:20:55;;;;;;;;;;;23.10;99.90;;;;;;5039323;28;19921;-68
2022/07/21 09:23:23;;;;;;;;;;;23.10;99.90;;;;;;5043373;28;19967;-68
2022/07/21 09:25:51;;;;;;;;;;;23.10;99.90;;;;;;5043712;28;19949;-68
2022/07/21 09:28:18;;;;;;;;;;;23.20;99.90;;;;;;5044155;28;19971;-68
2022/07/21 09:30:52;;;;;;;;;;;23.40;99.90;;;;;;5041445;28;19928;-68
2022/07/21 09:33:23;;;;;;;;;;;23.50;99.90;;;;;;5035475;28;19955;-67
2022/07/21 09:35:54;;;;;;;;;;;23.50;99.90;;;;;;5042444;28;19987;-68
2022/07/21 09:38:20;;;;;;;;;;;23.50;99.90;;;;;;5044153;28;19956;-68
2022/07/21 09:40:49;;;;;;;;;;;23.40;99.90;;;;;;5043313;28;19928;-68
2022/07/21 09:43:28;;;;;;;;;;;23.30;99.90;;;;;;5042880;28;19996;-68
2022/07/21 09:46:00;;;;;;;;;;;23.20;99.90;;;;;;5042975;28;20254;-69
2022/07/21 09:48:35;;;;;;;;;;;23.20;99.90;;;;;;5025622;28;19952;-68
2022/07/21 09:51:37;;;;;;;;;;;23.30;99.90;;;;;;5043726;28;19948;-68
2022/07/21 09:54:04;;;;;;;;;;;23.30;99.90;;;;;;4977703;28;19981;-70
2022/07/21 09:56:33;;;;;;;;;;;23.30;99.90;;;;;;4977809;28;19929;-68
2022/07/21 09:59:01;;;;;;;;;;;23.40;99.90;;;;;;5013795;28;19921;-68
2022/07/21 10:01:28;;;;;;;;;;;23.40;99.90;;;;;;5043291;28;19943;-67
2022/07/21 10:03:55;;;;;;;;;;;23.50;99.90;;;;;;5043204;28;19992;-68
2022/07/21 10:06:24;;;;;;;;;;;23.70;99.90;;;;;;5023202;28;19988;-70
2022/07/21 10:08:51;;;;;;;;;;;23.90;99.90;;;;;;5023904;28;20165;-67
2022/07/21 10:11:18;;;;;;;;;;;24.20;99.90;;;;;;5023605;28;19949;-66
2022/07/21 10:13:46;;;;;;;;;;;24.30;99.90;;;;;;5034136;28;19945;-67
2022/07/21 10:16:13;;;;;;;;;;;24.50;99.90;;;;;;5043351;28;19953;-67
2022/07/21 10:18:44;;;;;;;;;;;24.50;99.90;;;;;;5042893;28;19988;-67
2022/07/21 10:21:15;;;;;;;;;;;24.50;99.90;;;;;;5043726;28;19921;-68
2022/07/21 10:23:42;;;;;;;;;;;24.60;99.90;;;;;;5043504;28;20112;-67
2022/07/21 10:26:10;;;;;;;;;;;24.70;99.90;;;;;;5043537;28;19921;-67
2022/07/21 10:28:38;;;;;;;;;;;24.70;99.90;;;;;;5046246;28;20189;-67
2022/07/21 10:31:15;;;;;;;;;;;24.80;99.90;;;;;;5049925;28;20124;-67
2022/07/21 10:33:52;;;;;;;;;;;24.70;99.90;;;;;;5043270;28;19928;-67
2022/07/21 10:36:39;;;;;;;;;;;24.70;99.90;;;;;;5043331;28;19944;-67
2022/07/21 10:39:16;;;;;;;;;;;24.70;99.90;;;;;;5043733;28;20197;-67
2022/07/21 10:41:44;;;;;;;;;;;24.80;99.90;;;;;;5043190;28;19966;-68
2022/07/21 10:44:26;;;;;;;;;;;24.90;99.90;;;;;;5034913;28;19980;-67
2022/07/21 10:47:03;;;;;;;;;;;25.10;99.90;;;;;;5043007;28;20148;-67
2022/07/21 10:49:42;;;;;;;;;;;25.10;99.90;;;;;;5043169;28;19921;-67
2022/07/21 10:52:45;;;;;;;;;;;24.90;99.90;;;;;;5043093;28;19952;-67
2022/07/21 10:55:16;;;;;;;;;;;24.90;99.90;;;;;;5042662;28;20319;-67
2022/07/21 10:57:43;;;;;;;;;;;25.10;99.90;;;;;;5043078;28;19967;-67
2022/07/21 11:00:20;;;;;;;;;;;25.10;99.90;;;;;;5043051;28;19985;-67
2022/07/21 11:02:49;;;;;;;;;;;25.20;99.90;;;;;;5042869;28;19921;-67
2022/07/21 11:05:17;;;;;;;;;;;25.40;99.90;;;;;;5042362;28;19998;-67
2022/07/21 11:08:02;;;;;;;;;;;25.50;99.90;;;;;;5043265;28;19951;-66
2022/07/21 11:10:31;;;;;;;;;;;25.80;99.90;;;;;;5042504;28;19957;-66
2022/07/21 11:12:58;;;;;;;;;;;26.10;99.90;;;;;;5041106;28;19992;-68
2022/07/21 11:15:43;;;;;;;;;;;26.30;99.90;;;;;;5042562;28;19925;-68
2022/07/21 11:18:11;;;;;;;;;;;26.30;99.90;;;;;;5042865;28;20209;-68
2022/07/21 11:20:38;;;;;;;;;;;26.50;99.90;;;;;;5042492;28;19984;-65
2022/07/21 11:23:04;;;;;;;;;;;26.70;99.90;;;;;;5041533;28;20169;-66
2022/07/21 11:25:31;;;;;;;;;;;26.90;99.90;;;;;;5042283;28;19953;-65
2022/07/21 11:27:58;;;;;;;;;;;26.90;99.90;;;;;;5042835;28;19957;-66
2022/07/21 11:30:24;;;;;;;;;;;26.90;99.90;;;;;;5044316;28;19921;-67
2022/07/21 11:32:51;;;;;;;;;;;26.90;99.90;;;;;;5046336;28;19953;-66
2022/07/21 11:35:19;;;;;;;;;;;27.00;99.90;;;;;;5046373;28;20115;-69
2022/07/21 11:37:47;;;;;;;;;;;27.00;99.90;;;;;;5045966;28;19987;-69
2022/07/21 11:40:14;;;;;;;;;;;27.10;99.90;;;;;;5046084;28;19960;-66
2022/07/21 11:42:42;;;;;;;;;;;27.20;99.90;;;;;;5045966;28;19921;-66
2022/07/21 11:45:09;;;;;;;;;;;27.30;99.90;;;;;;5045870;28;19988;-67
2022/07/21 11:47:37;;;;;;;;;;;27.50;99.90;;;;;;5045852;28;19922;-66
2022/07/21 11:50:06;;;;;;;;;;;27.60;99.90;;;;;;5046530;28;19921;-67
2022/07/21 11:52:36;;;;;;;;;;;27.50;99.90;;;;;;5045895;28;19921;-67
2022/07/21 11:55:04;;;;;;;;;;;27.50;99.90;;;;;;5046186;28;19921;-67
2022/07/21 11:57:31;;;;;;;;;;;27.50;99.90;;;;;;5046353;28;19980;-66
2022/07/21 12:00:00;;;;;;;;;;;27.50;99.90;;;;;;5046062;28;19960;-66
2022/07/21 12:02:27;;;;;;;;;;;27.60;99.90;;;;;;5046213;28;20180;-66
2022/07/21 12:04:55;;;;;;;;;;;27.70;99.90;;;;;;5056434;28;19979;-66
2022/07/21 12:07:23;;;;;;;;;;;27.60;99.90;;;;;;5065601;28;19924;-65
2022/07/21 12:09:52;;;;;;;;;;;27.30;99.90;;;;;;5063099;28;19928;-66
2022/07/21 12:12:28;;;;;;;;;;;27.10;99.90;;;;;;5043830;28;19964;-66
2022/07/21 12:14:55;;;;;;;;;;;27.00;99.90;;;;;;5045106;28;20209;-66
2022/07/21 12:17:33;;;;;;;;;;;27.10;99.90;;;;;;5045588;28;19921;-65
2022/07/21 12:19:59;;;;;;;;;;;27.30;99.90;;;;;;5030170;28;19997;-66
2022/07/21 12:22:33;;;;;;;;;;;27.70;99.90;;;;;;5025925;28;20146;-67
2022/07/21 12:25:01;;;;;;;;;;;27.90;99.90;;;;;;5025365;28;20276;-66
2022/07/21 12:27:27;;;;;;;;;;;28.00;99.90;;;;;;5032120;28;19956;-66
2022/07/21 12:29:54;;;;;;;;;;;28.00;99.90;;;;;;5045591;28;19960;-66
2022/07/21 12:32:40;;;;;;;;;;;28.20;99.90;;;;;;5045321;28;20231;-66
2022/07/21 12:35:16;;;;;;;;;;;28.10;99.90;;;;;;5045403;28;19957;-66
2022/07/21 12:37:57;;;;;;;;;;;27.70;99.90;;;;;;5045368;28;20177;-66
2022/07/21 12:40:26;;;;;;;;;;;27.50;99.90;;;;;;5044883;28;19925;-66
2022/07/21 12:43:03;;;;;;;;;;;27.70;99.90;;;;;;5045091;28;20043;-67
2022/07/21 12:45:29;;;;;;;;;;;27.90;99.90;;;;;;5030940;28;19928;-66
2022/07/21 12:48:06;;;;;;;;;;;28.10;99.90;;;;;;5024686;28;19984;-66
2022/07/21 12:50:33;;;;;;;;;;;28.30;99.90;;;;;;5025423;28;19985;-66
2022/07/21 12:52:59;;;;;;;;;;;28.20;99.90;;;;;;5024831;28;19921;-66
2022/07/21 12:55:27;;;;;;;;;;;28.30;99.90;;;;;;5025022;28;19953;-66
2022/07/21 12:57:54;;;;;;;;;;;28.70;99.90;;;;;;5025131;28;20240;-66
2022/07/21 13:00:21;;;;;;;;;;;28.90;99.90;;;;;;5025052;28;19959;-66
2022/07/21 13:02:48;;;;;;;;;;;28.60;99.90;;;;;;5024862;28;19988;-68
2022/07/21 13:05:15;;;;;;;;;;;28.30;99.90;;;;;;5051343;28;19927;-67
2022/07/21 13:07:41;;;;;;;;;;;28.10;99.90;;;;;;5060915;28;19989;-66
2022/07/21 13:10:08;;;;;;;;;;;28.00;99.90;;;;;;5042990;28;19951;-66
2022/07/21 13:12:36;;;;;;;;;;;28.10;99.90;;;;;;5044649;28;19936;-66
2022/07/21 13:15:03;;;;;;;;;;;28.30;99.90;;;;;;5030224;28;19953;-66
2022/07/21 13:17:30;;;;;;;;;;;28.30;99.90;;;;;;5035956;28;19963;-66
2022/07/21 13:19:57;;;;;;;;;;;28.60;99.90;;;;;;5042555;28;19980;-71
2022/07/21 13:22:23;;;;;;;;;;;29.00;99.90;;;;;;5044498;28;19988;-66
2022/07/21 13:24:50;;;;;;;;;;;29.10;99.90;;;;;;5043951;28;20158;-67
2022/07/21 13:27:17;;;;;;;;;;;29.00;99.90;;;;;;5044349;28;19983;-66
2022/07/21 13:29:45;;;;;;;;;;;29.00;99.90;;;;;;5044200;28;20184;-67
2022/07/21 13:32:11;;;;;;;;;;;29.00;99.90;;;;;;5043791;28;19961;-66
2022/07/21 13:34:38;;;;;;;;;;;28.70;99.90;;;;;;5043287;28;20213;-66
2022/07/21 13:37:05;;;;;;;;;;;28.60;99.90;;;;;;5043757;28;20263;-66
2022/07/21 13:39:32;;;;;;;;;;;28.40;99.90;;;;;;5043256;28;19961;-66
2022/07/21 13:41:59;;;;;;;;;;;28.20;99.90;;;;;;5044049;28;19943;-66
2022/07/21 13:44:26;;;;;;;;;;;28.00;99.90;;;;;;5043454;28;20188;-66
2022/07/21 13:46:54;;;;;;;;;;;27.90;99.90;;;;;;5043475;28;20057;-66
2022/07/21 13:49:20;;;;;;;;;;;27.70;99.90;;;;;;5042401;28;20004;-66
2022/07/21 13:51:47;;;;;;;;;;;27.70;99.90;;;;;;5043716;28;19963;-67
2022/07/21 13:54:14;;;;;;;;;;;27.50;99.90;;;;;;5042798;28;19963;-66
2022/07/21 13:56:40;;;;;;;;;;;27.50;99.90;;;;;;5043593;28;19984;-66
2022/07/21 13:59:07;;;;;;;;;;;27.90;99.90;;;;;;5043042;28;19921;-66
2022/07/21 14:01:34;;;;;;;;;;;28.30;99.90;;;;;;5042990;28;19921;-66
2022/07/21 14:04:02;;;;;;;;;;;28.70;99.90;;;;;;5042662;28;19936;-67
2022/07/21 14:06:29;;;;;;;;;;;28.90;98.10;;;;;;5043554;28;19921;-66
2022/07/21 14:08:56;;;;;;;;;;;29.20;97.80;;;;;;5033881;28;19968;-66
2022/07/21 14:11:27;;;;;;;;;;;29.40;98.10;;;;;;5042215;28;20019;-66
2022/07/21 14:13:54;;;;;;;;;;;29.70;97.30;;;;;;5043056;28;19921;-66
2022/07/21 14:16:20;;;;;;;;;;;29.80;97.20;;;;;;5068032;22;19925;-70
2022/07/21 14:18:47;;;;;;;;;;;29.90;95.80;;;;;;5062746;28;19944;-72
2022/07/21 14:21:15;;;;;;;;;;;30.10;96.20;;;;;;5063210;28;19927;-70
2022/07/21 14:23:42;;;;;;;;;;;30.20;96.80;;;;;;5062977;28;19952;-70